Time;durP1;ratioP1;P1;durP2;ratioP2;P2;SDS_P1;SDS_P2;PMS_P1;PMS_P2;Temp;Humidity;BMP_temperature;BMP_pressure;BME280_temperature;BME280_humidity;BME280_pressure;Samples;Min_cycle;Max_cycle;Signal;HPM_P1;HPM_P2
2021/03/14 00:00:49;;;;;;;1.53;0.30;;;;;;;5.41;77.58;96669.44;5078404;28;20240;-78
2021/03/14 00:03:18;;;;;;;2.30;0.50;;;;;;;5.45;77.41;96658.97;5079191;28;20979;-78
2021/03/14 00:05:45;;;;;;;2.33;0.50;;;;;;;5.44;77.60;96663.31;5077533;28;21128;-78
2021/03/14 00:08:12;;;;;;;1.53;0.50;;;;;;;5.41;78.03;96663.44;5078242;28;20278;-78
2021/03/14 00:10:40;;;;;;;3.33;0.80;;;;;;;5.34;79.07;96677.53;5077239;28;20247;-79
2021/03/14 00:13:06;;;;;;;2.23;0.37;;;;;;;5.21;80.03;96683.19;5078706;28;20224;-78
2021/03/14 00:15:32;;;;;;;1.50;0.20;;;;;;;5.26;80.17;96682.19;5079021;28;20260;-79
2021/03/14 00:17:59;;;;;;;0.00;0.00;;;;;;;5.25;79.80;96688.25;5074393;28;20297;-79
2021/03/14 00:20:25;;;;;;;1.00;0.30;;;;;;;5.18;80.35;96693.69;5078150;28;20240;-78
2021/03/14 00:22:51;;;;;;;2.03;0.40;;;;;;;5.24;80.10;96699.47;5076142;28;20234;-78
2021/03/14 00:25:18;;;;;;;3.60;0.53;;;;;;;5.26;80.27;96714.03;5078534;28;20219;-78
2021/03/14 00:27:44;;;;;;;2.20;0.70;;;;;;;5.36;79.30;96706.75;5079271;28;20229;-78
2021/03/14 00:30:15;;;;;;;1.10;0.40;;;;;;;5.38;79.35;96704.94;5077447;28;20231;-79
2021/03/14 00:32:42;;;;;;;1.90;0.43;;;;;;;5.37;79.42;96693.75;5072762;28;20362;-78
2021/03/14 00:35:11;;;;;;;2.97;0.40;;;;;;;5.26;80.11;96706.28;5074256;28;20205;-79
2021/03/14 00:37:38;;;;;;;2.77;0.67;;;;;;;5.37;79.50;96703.28;5077578;28;20249;-78
2021/03/14 00:40:05;;;;;;;3.30;0.40;;;;;;;5.38;79.24;96715.28;5078548;28;20209;-78
2021/03/14 00:43:38;;;;;;;0.60;0.30;;;;;;;5.31;79.25;96700.91;5059779;27;1442142;-77
2021/03/14 00:46:04;;;;;;;1.80;0.60;;;;;;;5.29;79.68;96689.78;5078048;28;20929;-77
2021/03/14 00:48:30;;;;;;;2.30;1.37;;;;;;;5.36;78.94;96684.31;5044637;28;20248;-77
2021/03/14 00:50:56;;;;;;;0.57;0.30;;;;;;;5.39;78.89;96693.69;5043144;28;20817;-77
2021/03/14 00:53:22;;;;;;;3.27;1.00;;;;;;;5.39;78.70;96691.13;5041876;28;20214;-79
2021/03/14 00:55:49;;;;;;;1.90;0.80;;;;;;;5.36;78.68;96696.41;5044602;28;20624;-79
2021/03/14 00:58:15;;;;;;;2.10;0.40;;;;;;;5.27;79.52;96723.47;5039339;28;20236;-78
2021/03/14 01:00:41;;;;;;;2.93;0.50;;;;;;;5.26;79.27;96726.97;5042316;28;20234;-80
2021/03/14 01:03:08;;;;;;;1.13;0.50;;;;;;;5.18;79.71;96714.34;5041848;28;20268;-79
2021/03/14 01:05:34;;;;;;;2.27;0.30;;;;;;;5.15;80.14;96706.72;5041861;28;20249;-79
2021/03/14 01:08:00;;;;;;;2.03;0.40;;;;;;;5.19;79.21;96699.69;5044770;28;20241;-79
2021/03/14 01:10:26;;;;;;;2.27;0.60;;;;;;;5.14;79.37;96702.44;5039591;28;20244;-79
2021/03/14 01:12:52;;;;;;;2.40;0.60;;;;;;;5.20;79.05;96702.22;5043242;28;20260;-78
2021/03/14 01:15:18;;;;;;;2.03;0.70;;;;;;;5.22;79.27;96699.56;5041104;28;20222;-79
2021/03/14 01:17:45;;;;;;;1.93;0.53;;;;;;;5.26;79.20;96708.03;5043566;28;20244;-79
2021/03/14 01:20:15;;;;;;;2.13;0.80;;;;;;;5.19;79.36;96713.44;5041824;28;20226;-79
2021/03/14 01:22:41;;;;;;;1.57;0.40;;;;;;;5.27;79.25;96712.28;5040932;28;20246;-80
2021/03/14 01:25:09;;;;;;;1.40;0.50;;;;;;;5.25;79.07;96714.94;5042270;28;20221;-79
2021/03/14 01:27:36;;;;;;;0.73;0.50;;;;;;;5.27;79.08;96714.88;5040993;28;20238;-79
2021/03/14 01:30:03;;;;;;;1.07;0.40;;;;;;;5.28;78.93;96711.41;5044717;28;20970;-80
2021/03/14 01:33:52;;;;;;;1.93;0.50;;;;;;;5.24;78.96;96707.22;5113077;27;20581;-79
2021/03/14 01:36:18;;;;;;;1.03;0.30;;;;;;;5.19;79.07;96716.03;5093737;27;20236;-80
2021/03/14 01:38:44;;;;;;;1.42;0.40;;;;;;;5.20;79.06;96716.84;5084166;28;20238;-79
2021/03/14 01:41:10;;;;;;;1.87;0.43;;;;;;;5.10;79.15;96710.38;5085775;27;20262;-79
2021/03/14 01:43:37;;;;;;;1.27;0.30;;;;;;;4.98;80.09;96711.69;5084806;28;20212;-78
2021/03/14 01:46:04;;;;;;;0.83;0.40;;;;;;;4.97;79.98;96718.63;5085137;28;20240;-78
2021/03/14 01:48:32;;;;;;;1.77;0.50;;;;;;;5.05;79.69;96717.47;5084735;28;20232;-78
2021/03/14 01:50:59;;;;;;;2.47;0.50;;;;;;;4.97;80.17;96725.53;5083143;28;20240;-79
2021/03/14 01:53:25;;;;;;;3.40;0.60;;;;;;;4.88;81.02;96728.47;5084106;28;20297;-78
2021/03/14 01:55:51;;;;;;;1.30;0.20;;;;;;;4.68;83.18;96737.81;5084648;28;20229;-80
2021/03/14 01:58:18;;;;;;;0.40;0.30;;;;;;;4.56;84.25;96738.28;5083985;28;20233;-79
2021/03/14 02:00:44;;;;;;;0.80;0.40;;;;;;;4.46;84.01;96735.19;5083971;28;20232;-80
2021/03/14 02:03:10;;;;;;;1.70;0.30;;;;;;;4.35;84.39;96730.41;5080039;28;20209;-79
2021/03/14 02:05:37;;;;;;;1.83;0.23;;;;;;;4.31;85.36;96739.16;5085722;28;20231;-80
2021/03/14 02:08:05;;;;;;;0.10;0.10;;;;;;;4.19;86.39;96742.19;5082281;28;20311;-79
2021/03/14 02:10:32;;;;;;;0.30;0.10;;;;;;;4.15;86.38;96748.34;5079540;28;20225;-79
2021/03/14 02:13:02;;;;;;;2.23;0.40;;;;;;;4.09;86.91;96748.59;5080979;28;20232;-79
2021/03/14 02:15:29;;;;;;;0.40;0.00;;;;;;;3.89;87.57;96738.97;5082362;28;20237;-79
2021/03/14 02:17:56;;;;;;;0.97;0.07;;;;;;;3.76;88.86;96721.31;5084737;28;20711;-80
2021/03/14 02:20:25;;;;;;;1.30;0.30;;;;;;;3.88;88.15;96717.50;5085897;28;20958;-79
2021/03/14 02:23:08;;;;;;;1.90;0.30;;;;;;;3.88;88.57;96717.50;5085314;28;20205;-79
2021/03/14 02:25:36;;;;;;;2.30;0.37;;;;;;;4.00;87.41;96732.50;5086897;28;20232;-79
2021/03/14 02:28:03;;;;;;;2.30;0.40;;;;;;;3.99;87.99;96743.75;5089125;28;20306;-80
2021/03/14 02:30:30;;;;;;;1.17;0.40;;;;;;;4.16;86.79;96742.31;5088634;28;20425;-78
2021/03/14 02:32:56;;;;;;;3.40;0.50;;;;;;;4.15;87.12;96748.34;5089231;28;20992;-79
2021/03/14 02:35:22;;;;;;;2.53;0.30;;;;;;;4.25;86.00;96752.31;5088526;28;20221;-79
2021/03/14 02:37:49;;;;;;;2.03;0.50;;;;;;;4.33;86.15;96742.53;5089959;28;20237;-79
2021/03/14 02:40:15;;;;;;;3.37;0.50;;;;;;;4.49;84.85;96737.66;5088974;28;20219;-81
2021/03/14 02:42:42;;;;;;;1.33;0.40;;;;;;;4.49;85.01;96729.91;5089954;28;20212;-79
2021/03/14 02:45:11;;;;;;;0.97;0.37;;;;;;;4.32;85.52;96734.84;5075258;28;20218;-79
2021/03/14 02:47:39;;;;;;;1.37;0.40;;;;;;;4.27;86.87;96740.19;5078201;28;20232;-80
2021/03/14 02:50:07;;;;;;;1.43;0.60;;;;;;;4.41;85.76;96735.38;5075919;28;20233;-79
2021/03/14 02:52:33;;;;;;;2.43;0.47;;;;;;;4.58;85.19;96736.50;5075533;28;20237;-79
2021/03/14 02:54:59;;;;;;;2.33;0.57;;;;;;;4.66;84.69;96726.69;5072568;28;20225;-80
2021/03/14 02:57:26;;;;;;;1.93;0.50;;;;;;;4.41;85.84;96727.63;5075369;28;20245;-78
2021/03/14 02:59:54;;;;;;;0.20;0.10;;;;;;;4.19;88.42;96748.22;5073288;28;20752;-81
2021/03/14 03:02:22;;;;;;;1.40;0.43;;;;;;;4.03;89.94;96742.75;5076514;28;20263;-79
2021/03/14 03:04:49;;;;;;;0.70;0.30;;;;;;;3.96;89.99;96746.41;5073834;28;20224;-80
2021/03/14 03:07:17;;;;;;;1.07;0.40;;;;;;;4.16;88.24;96744.91;5070755;28;20722;-80
2021/03/14 03:09:45;;;;;;;1.10;0.17;;;;;;;4.10;88.35;96758.00;5074771;28;20217;-79
2021/03/14 03:12:12;;;;;;;0.30;0.10;;;;;;;3.93;90.10;96767.16;5074204;28;20247;-79
2021/03/14 03:14:38;;;;;;;1.13;0.37;;;;;;;3.81;91.52;96767.59;5071122;28;20221;-79
2021/03/14 03:17:05;;;;;;;0.00;0.00;;;;;;;3.76;91.93;96774.63;5074762;28;20292;-79
2021/03/14 03:19:32;;;;;;;1.10;0.20;;;;;;;3.70;92.69;96780.00;5071237;28;20223;-78
2021/03/14 03:21:58;;;;;;;0.73;0.30;;;;;;;3.78;91.31;96780.59;5072991;28;20718;-78
2021/03/14 03:24:25;;;;;;;2.57;0.00;;;;;;;3.64;90.78;96797.34;5071758;28;20217;-79
2021/03/14 03:26:51;;;;;;;2.63;0.90;;;;;;;3.63;91.07;96795.66;5077484;28;20237;-79
2021/03/14 03:29:18;;;;;;;0.10;0.10;;;;;;;3.59;90.33;96811.28;5071837;28;20217;-79
2021/03/14 03:31:46;;;;;;;0.50;0.30;;;;;;;3.39;91.25;96823.06;5072745;28;20248;-79
2021/03/14 03:34:13;;;;;;;0.70;0.60;;;;;;;3.28;91.41;96831.13;5071990;28;20206;-79
2021/03/14 03:36:40;;;;;;;0.47;0.40;;;;;;;3.22;91.58;96838.22;5069137;28;20229;-79
2021/03/14 03:39:08;;;;;;;0.60;0.37;;;;;;;3.17;92.60;96833.19;5071934;28;20703;-79
2021/03/14 03:41:35;;;;;;;3.23;0.60;;;;;;;3.30;92.06;96828.50;5072991;28;20237;-80
2021/03/14 03:44:01;;;;;;;0.30;0.30;;;;;;;3.40;91.65;96829.94;5075002;28;20666;-80
2021/03/14 03:48:39;;;;;;;3.20;0.73;;;;;;;3.41;91.34;96823.03;5090811;27;20586;-79
2021/03/14 03:51:05;;;;;;;1.77;0.50;;;;;;;3.63;90.48;96830.94;5049804;28;20250;-79
2021/03/14 03:53:33;;;;;;;0.73;0.60;;;;;;;3.77;89.96;96836.50;5017474;28;20219;-79
2021/03/14 03:55:59;;;;;;;1.10;0.70;;;;;;;3.84;89.21;96837.13;5020329;28;20300;-79
2021/03/14 03:58:26;;;;;;;1.70;0.80;;;;;;;3.91;89.07;96836.03;5018771;28;20243;-79
2021/03/14 04:00:53;;;;;;;2.10;0.60;;;;;;;3.80;89.38;96845.84;5018479;28;20711;-79
2021/03/14 04:03:19;;;;;;;0.73;0.40;;;;;;;3.85;89.37;96847.38;5018717;28;20418;-78
2021/03/14 04:05:46;;;;;;;1.23;0.50;;;;;;;3.80;89.53;96851.00;5015785;28;20238;-79
2021/03/14 04:08:13;;;;;;;1.77;0.53;;;;;;;3.86;89.48;96856.00;5017812;28;20239;-79
2021/03/14 04:10:40;;;;;;;1.00;0.60;;;;;;;3.93;89.19;96851.44;5018825;28;20238;-79
2021/03/14 04:13:06;;;;;;;3.17;0.80;;;;;;;3.95;88.79;96863.44;5020172;28;20886;-79
2021/03/14 04:15:33;;;;;;;1.47;0.60;;;;;;;3.98;88.38;96858.16;5015359;28;20239;-78
2021/03/14 04:18:00;;;;;;;2.20;0.80;;;;;;;4.08;87.66;96855.25;5014896;28;20380;-78
2021/03/14 04:20:30;;;;;;;2.30;0.60;;;;;;;4.07;88.13;96869.06;5017667;28;20237;-79
2021/03/14 04:22:59;;;;;;;2.90;0.70;;;;;;;4.17;87.21;96873.00;5040199;28;20199;-79
2021/03/14 04:25:26;;;;;;;2.13;0.73;;;;;;;4.11;88.03;96873.22;5038952;28;20654;-80
2021/03/14 04:27:53;;;;;;;1.30;0.60;;;;;;;4.14;87.86;96865.41;5040417;28;20237;-79
2021/03/14 04:30:21;;;;;;;3.00;0.73;;;;;;;4.10;88.21;96874.09;5036928;28;20214;-79
2021/03/14 04:32:47;;;;;;;2.80;0.83;;;;;;;4.10;87.78;96884.44;5043042;28;20372;-79
2021/03/14 04:36:49;;;;;;;1.90;0.80;;;;;;;4.20;87.02;96880.66;5085136;27;20537;-79
2021/03/14 04:39:18;;;;;;;1.13;1.00;;;;;;;4.16;88.23;96892.81;5068720;28;20678;-78
2021/03/14 04:41:45;;;;;;;1.93;0.50;;;;;;;4.05;88.61;96893.19;5068301;28;20233;-79
2021/03/14 04:44:13;;;;;;;1.10;0.97;;;;;;;4.05;88.88;96900.91;5066495;28;20217;-78
2021/03/14 04:46:39;;;;;;;1.97;0.80;;;;;;;4.19;87.81;96897.03;5064370;28;20248;-79
2021/03/14 04:49:05;;;;;;;3.13;1.10;;;;;;;4.14;88.36;96909.28;5070767;28;20209;-81
2021/03/14 04:51:33;;;;;;;3.13;1.00;;;;;;;4.25;87.66;96917.50;5066704;28;20808;-80
2021/03/14 04:54:01;;;;;;;2.43;0.73;;;;;;;4.35;87.39;96918.84;5067621;28;20231;-79
2021/03/14 04:56:28;;;;;;;2.33;1.33;;;;;;;4.42;86.67;96935.84;5069044;28;20267;-79
2021/03/14 04:58:55;;;;;;;1.50;0.87;;;;;;;4.44;87.06;96928.88;5067963;28;20233;-79
2021/03/14 05:01:21;;;;;;;3.73;1.07;;;;;;;4.51;86.89;96939.84;5063305;28;20237;-79
2021/03/14 05:03:50;;;;;;;1.80;1.00;;;;;;;4.61;86.33;96940.38;5068717;28;20225;-79
2021/03/14 05:06:17;;;;;;;1.73;1.03;;;;;;;4.65;86.10;96939.41;5067395;28;20919;-79
2021/03/14 05:08:44;;;;;;;1.97;0.90;;;;;;;4.58;87.11;96945.66;5064345;28;20777;-79
2021/03/14 05:11:12;;;;;;;2.27;1.10;;;;;;;4.38;88.19;96949.75;5065523;28;20248;-79
2021/03/14 05:13:39;;;;;;;2.20;1.23;;;;;;;4.37;88.08;96953.22;5061460;28;20217;-81
2021/03/14 05:16:05;;;;;;;1.83;1.10;;;;;;;4.39;88.30;96956.63;5065754;28;20241;-79
2021/03/14 05:18:32;;;;;;;2.30;1.30;;;;;;;4.43;87.89;96955.59;5069703;28;20241;-79
2021/03/14 05:20:58;;;;;;;1.73;1.53;;;;;;;4.52;87.88;96966.50;5065596;28;20237;-79
2021/03/14 05:23:24;;;;;;;2.70;0.93;;;;;;;4.42;88.44;96971.16;5068995;28;20210;-79
2021/03/14 05:25:51;;;;;;;1.17;0.90;;;;;;;4.33;88.72;96972.28;5066533;28;20248;-79
2021/03/14 05:28:19;;;;;;;2.00;1.53;;;;;;;4.26;89.04;96986.28;5068341;28;20265;-78
2021/03/14 05:30:45;;;;;;;0.73;0.60;;;;;;;4.11;90.71;96989.34;5068628;28;20316;-79
2021/03/14 05:33:12;;;;;;;4.10;2.30;;;;;;;4.20;90.36;96995.06;5067999;28;20217;-80
2021/03/14 05:35:38;;;;;;;2.20;1.70;;;;;;;4.29;90.10;97001.69;5065204;28;20303;-80
2021/03/14 05:38:04;;;;;;;2.50;1.60;;;;;;;4.34;89.87;97002.38;5065998;28;20241;-80
2021/03/14 05:40:31;;;;;;;3.87;1.93;;;;;;;4.41;88.92;97011.63;5067064;28;20697;-79
2021/03/14 05:42:58;;;;;;;1.90;1.47;;;;;;;4.40;89.24;97014.25;5066632;28;20221;-79
2021/03/14 05:45:25;;;;;;;3.10;1.47;;;;;;;4.43;88.88;97015.00;5058945;28;20382;-80
2021/03/14 05:47:51;;;;;;;2.00;1.17;;;;;;;4.35;89.08;97026.44;5057586;28;21411;-79
2021/03/14 05:50:19;;;;;;;4.27;1.30;;;;;;;4.21;90.21;97019.16;5051653;28;20210;-78
2021/03/14 05:52:45;;;;;;;2.10;1.17;;;;;;;4.22;90.43;97026.00;5055010;28;20213;-78
2021/03/14 05:55:14;;;;;;;1.83;1.00;;;;;;;4.14;89.47;97033.16;5050222;28;20324;-79
2021/03/14 05:57:43;;;;;;;2.00;1.07;;;;;;;4.16;89.72;97033.94;5054128;28;20287;-80
2021/03/14 06:00:10;;;;;;;0.53;0.40;;;;;;;4.15;89.81;97039.97;5052125;28;20226;-78
2021/03/14 06:02:38;;;;;;;3.17;1.80;;;;;;;4.08;90.26;97038.47;5052841;28;20271;-78
2021/03/14 06:05:08;;;;;;;0.80;0.40;;;;;;;4.11;89.43;97043.53;5052416;28;20726;-80
2021/03/14 06:07:34;;;;;;;1.50;0.83;;;;;;;4.18;88.53;97052.78;5047655;28;20245;-80
2021/03/14 06:10:01;;;;;;;0.40;0.40;;;;;;;4.12;89.38;97061.56;5052985;28;20241;-79
2021/03/14 06:12:27;;;;;;;1.07;0.80;;;;;;;4.10;89.52;97070.22;5053412;28;20225;-78
2021/03/14 06:14:53;;;;;;;0.60;0.60;;;;;;;4.11;89.56;97069.34;5056353;28;20234;-79
2021/03/14 06:17:19;;;;;;;1.83;0.70;;;;;;;4.05;89.75;97081.53;5051150;28;20252;-79
2021/03/14 06:19:46;;;;;;;1.37;0.60;;;;;;;4.21;88.16;97075.94;5053861;28;20213;-78
2021/03/14 06:22:19;;;;;;;0.73;0.70;;;;;;;4.20;88.32;97079.41;5053122;28;20244;-79
2021/03/14 06:24:45;;;;;;;1.33;0.90;;;;;;;4.28;88.31;97071.41;5054138;28;20210;-79
2021/03/14 06:27:12;;;;;;;1.00;0.90;;;;;;;4.28;88.15;97077.41;5055151;28;20317;-78
2021/03/14 06:29:40;;;;;;;2.57;1.03;;;;;;;4.22;87.81;97085.34;5048642;28;20225;-79
2021/03/14 06:32:06;;;;;;;1.50;0.70;;;;;;;4.24;87.33;97087.00;5053485;28;20228;-81
2021/03/14 06:34:34;;;;;;;0.80;0.53;;;;;;;4.16;88.05;97103.63;5054455;28;20237;-79
2021/03/14 06:37:10;;;;;;;1.40;1.07;;;;;;;4.08;87.52;97092.66;5053669;28;20560;-79
2021/03/14 06:39:37;;;;;;;1.23;0.90;;;;;;;4.13;87.71;97094.22;5054223;28;20233;-79
2021/03/14 06:42:04;;;;;;;0.90;0.70;;;;;;;4.13;88.15;97103.69;5055031;28;20742;-80
2021/03/14 06:44:32;;;;;;;2.00;1.00;;;;;;;4.19;86.87;97111.25;5055055;28;20214;-81
2021/03/14 06:46:58;;;;;;;1.10;0.50;;;;;;;4.13;86.58;97112.28;5053823;28;20238;-79
2021/03/14 06:49:26;;;;;;;1.70;0.73;;;;;;;4.05;87.12;97127.16;5055008;28;20336;-78
2021/03/14 06:51:54;;;;;;;2.13;1.13;;;;;;;4.09;87.04;97130.50;5055449;28;20222;-79
2021/03/14 06:54:24;;;;;;;1.13;0.73;;;;;;;4.08;87.71;97126.22;5058339;28;20289;-81
2021/03/14 06:57:11;;;;;;;1.00;0.80;;;;;;;4.10;87.31;97134.75;5056048;28;20347;-81
2021/03/14 06:59:38;;;;;;;2.43;1.37;;;;;;;4.14;87.12;97146.69;5054128;28;20206;-79
2021/03/14 07:02:07;;;;;;;1.90;1.30;;;;;;;4.11;86.91;97139.03;5054049;28;20242;-79
2021/03/14 07:04:45;;;;;;;1.80;0.80;;;;;;;4.14;87.10;97154.44;5055295;28;20210;-78
2021/03/14 07:07:26;;;;;;;3.83;1.63;;;;;;;4.19;86.86;97161.16;5054382;28;20249;-79
2021/03/14 07:10:01;;;;;;;1.97;0.50;;;;;;;4.20;87.75;97162.00;5055477;28;20218;-79
2021/03/14 07:12:30;;;;;;;2.23;1.27;;;;;;;4.22;87.16;97178.28;5057799;28;20275;-79
2021/03/14 07:14:56;;;;;;;1.47;1.20;;;;;;;4.23;86.56;97173.06;5053629;28;20230;-79
2021/03/14 07:17:33;;;;;;;2.27;0.87;;;;;;;4.22;87.71;97181.69;5053418;28;20246;-79
2021/03/14 07:20:03;;;;;;;1.70;1.60;;;;;;;4.28;86.82;97196.16;5053697;28;20198;-79
2021/03/14 07:22:30;;;;;;;3.03;1.50;;;;;;;4.30;85.50;97193.53;5046057;28;20233;-79
2021/03/14 07:24:56;;;;;;;1.43;1.03;;;;;;;4.24;85.71;97204.88;5053829;28;20220;-80
2021/03/14 07:27:24;;;;;;;1.07;0.80;;;;;;;4.23;85.69;97203.22;5059299;28;20242;-79
2021/03/14 07:29:52;;;;;;;2.57;1.97;;;;;;;4.29;85.37;97207.34;5053184;28;20221;-78
2021/03/14 07:32:18;;;;;;;2.47;1.80;;;;;;;4.29;86.02;97213.34;5054389;28;20240;-78
2021/03/14 07:34:44;;;;;;;5.43;1.50;;;;;;;4.33;86.00;97220.13;5055021;28;20225;-79
2021/03/14 07:37:11;;;;;;;1.30;0.70;;;;;;;4.35;85.21;97226.06;5053565;28;20244;-78
2021/03/14 07:39:37;;;;;;;3.77;2.17;;;;;;;4.41;84.62;97225.94;5054122;28;20213;-79
2021/03/14 07:42:04;;;;;;;1.83;1.40;;;;;;;4.46;83.39;97230.09;5051176;28;20242;-80
2021/03/14 07:44:32;;;;;;;1.03;0.90;;;;;;;4.39;83.96;97227.72;5050736;28;20366;-78
2021/03/14 07:47:01;;;;;;;4.50;1.33;;;;;;;4.36;84.36;97240.69;5051119;28;20269;-80
2021/03/14 07:49:28;;;;;;;1.80;1.47;;;;;;;4.40;83.69;97242.28;5055184;28;20713;-79
2021/03/14 07:52:00;;;;;;;5.53;2.70;;;;;;;4.52;83.85;97245.41;5048448;28;20238;-79
2021/03/14 07:54:29;;;;;;;4.80;2.13;;;;;;;4.52;84.33;97250.56;5051575;28;21008;-78
2021/03/14 07:56:58;;;;;;;3.70;1.23;;;;;;;4.50;84.23;97257.53;5053695;28;20605;-78
2021/03/14 07:59:26;;;;;;;1.60;0.90;;;;;;;4.46;83.94;97271.41;5050899;28;20995;-78
2021/03/14 08:01:55;;;;;;;1.10;1.00;;;;;;;4.38;85.79;97280.22;5048946;28;20244;-79
2021/03/14 08:04:32;;;;;;;2.63;1.00;;;;;;;4.26;87.02;97285.72;5046253;28;20225;-80
2021/03/14 08:06:58;;;;;;;4.40;1.87;;;;;;;4.20;87.35;97291.06;5052128;28;20323;-79
2021/03/14 08:09:43;;;;;;;2.77;1.70;;;;;;;4.18;87.83;97293.66;5051330;28;20224;-80
2021/03/14 08:12:21;;;;;;;1.40;1.30;;;;;;;4.16;88.34;97297.19;5045969;28;20237;-80
2021/03/14 08:14:49;;;;;;;3.07;1.67;;;;;;;4.18;87.75;97292.84;5052667;28;20222;-79
2021/03/14 08:17:19;;;;;;;3.90;2.30;;;;;;;4.20;88.39;97309.13;5049441;28;20312;-80
2021/03/14 08:19:45;;;;;;;1.77;0.97;;;;;;;4.21;88.51;97303.91;5050273;28;20214;-79
2021/03/14 08:22:46;;;;;;;3.23;2.20;;;;;;;4.25;89.52;97312.44;5050188;28;20739;-78
2021/03/14 08:25:17;;;;;;;4.73;1.80;;;;;;;4.36;88.21;97297.50;5052454;28;20290;-80
2021/03/14 08:27:43;;;;;;;4.43;2.00;;;;;;;4.40;87.65;97308.59;5052648;28;20226;-80
2021/03/14 08:30:10;;;;;;;3.53;1.80;;;;;;;4.42;88.06;97312.81;5051673;28;20222;-79
2021/03/14 08:32:37;;;;;;;6.77;3.13;;;;;;;4.47;87.75;97322.16;5056221;28;20575;-79
2021/03/14 08:35:03;;;;;;;1.03;0.50;;;;;;;4.43;88.16;97324.84;5054574;28;20225;-79
2021/03/14 08:37:31;;;;;;;1.20;1.00;;;;;;;4.46;87.13;97328.22;5051683;28;20621;-79
2021/03/14 08:39:59;;;;;;;2.43;1.53;;;;;;;4.55;86.02;97323.66;5048032;28;22196;-79
2021/03/14 08:42:48;;;;;;;2.03;1.50;;;;;;;4.60;84.99;97315.78;5049951;28;20341;-82
2021/03/14 08:45:20;;;;;;;1.37;1.20;;;;;;;4.67;83.83;97327.66;5048016;28;20282;-79
2021/03/14 08:47:47;;;;;;;1.97;1.30;;;;;;;4.65;83.85;97326.84;5050027;28;20241;-80
2021/03/14 08:50:13;;;;;;;2.20;1.30;;;;;;;4.66;84.08;97331.09;5048825;28;20221;-79
2021/03/14 08:52:39;;;;;;;2.83;1.13;;;;;;;4.70;82.55;97337.03;5049594;28;20557;-79
2021/03/14 08:55:06;;;;;;;1.87;1.07;;;;;;;4.73;81.79;97337.78;5051824;28;20215;-78
2021/03/14 08:57:32;;;;;;;1.33;0.80;;;;;;;4.72;82.59;97346.41;5050854;28;20236;-78
2021/03/14 09:00:00;;;;;;;1.10;0.93;;;;;;;4.70;82.41;97332.69;5048422;28;20240;-80
2021/03/14 09:02:28;;;;;;;1.40;0.90;;;;;;;4.67;82.21;97343.13;5049592;28;20238;-79
2021/03/14 09:05:10;;;;;;;1.40;1.07;;;;;;;4.65;82.46;97347.50;5046119;28;20599;-79
2021/03/14 09:07:36;;;;;;;1.60;1.13;;;;;;;4.71;81.30;97349.06;5048768;28;20242;-79
2021/03/14 09:10:09;;;;;;;3.90;1.17;;;;;;;4.65;80.63;97352.69;5047820;28;20214;-77
2021/03/14 09:12:35;;;;;;;1.50;1.07;;;;;;;4.75;79.54;97356.69;5049628;28;20210;-78
2021/03/14 09:15:04;;;;;;;1.70;1.00;;;;;;;4.69;80.02;97362.03;5046551;28;20275;-81
2021/03/14 09:17:37;;;;;;;1.70;1.50;;;;;;;4.79;80.06;97360.84;5049495;28;20237;-80
2021/03/14 09:20:05;;;;;;;2.33;0.87;;;;;;;4.71;80.63;97360.25;5048099;28;20206;-78
2021/03/14 09:22:32;;;;;;;3.53;2.60;;;;;;;4.74;80.79;97365.34;5055179;28;20225;-80
2021/03/14 09:24:59;;;;;;;1.57;1.10;;;;;;;4.80;78.86;97366.91;5051666;28;20213;-79
2021/03/14 09:27:27;;;;;;;1.67;1.40;;;;;;;4.75;79.56;97374.75;5056561;28;20234;-77
2021/03/14 09:29:55;;;;;;;1.63;0.93;;;;;;;4.73;80.61;97367.97;5051639;28;20711;-77
2021/03/14 09:32:29;;;;;;;1.23;0.97;;;;;;;4.79;79.11;97367.78;5047055;28;20240;-77
2021/03/14 09:35:12;;;;;;;3.40;1.43;;;;;;;4.86;79.30;97378.78;5054088;28;20971;-78
2021/03/14 09:37:39;;;;;;;1.63;1.13;;;;;;;4.82;79.00;97388.38;5052425;28;20279;-78
2021/03/14 09:40:10;;;;;;;1.20;0.87;;;;;;;4.83;77.73;97380.59;5050818;28;20928;-79
2021/03/14 09:42:37;;;;;;;2.37;1.20;;;;;;;4.90;76.20;97385.56;5051496;28;20214;-80
2021/03/14 09:45:09;;;;;;;1.13;1.03;;;;;;;4.86;78.66;97381.38;5051780;28;20211;-80
2021/03/14 09:47:36;;;;;;;2.37;1.03;;;;;;;4.92;78.45;97383.78;5051240;28;20240;-80
2021/03/14 09:50:06;;;;;;;2.23;1.00;;;;;;;5.08;76.80;97397.97;5052065;28;20205;-79
2021/03/14 09:52:34;;;;;;;1.57;1.10;;;;;;;5.21;76.26;97403.63;5054809;28;20236;-79
2021/03/14 09:55:01;;;;;;;3.57;1.57;;;;;;;5.21;75.27;97401.88;5057953;28;20210;-79
2021/03/14 09:57:27;;;;;;;1.97;1.30;;;;;;;5.18;75.83;97402.00;5050569;28;20238;-78
2021/03/14 09:59:56;;;;;;;2.70;1.43;;;;;;;5.20;73.78;97400.22;5052609;28;20222;-79
2021/03/14 10:02:23;;;;;;;2.67;1.63;;;;;;;5.15;73.62;97402.06;5049978;28;20245;-83
2021/03/14 10:04:49;;;;;;;1.90;1.23;;;;;;;5.14;73.80;97397.78;5050211;28;20218;-79
2021/03/14 10:07:22;;;;;;;3.03;1.07;;;;;;;5.12;74.63;97396.97;5049861;28;20719;-80
2021/03/14 10:09:50;;;;;;;2.33;1.23;;;;;;;5.26;74.43;97398.34;5049755;28;20215;-78
2021/03/14 10:12:16;;;;;;;1.33;1.10;;;;;;;5.27;73.22;97400.84;5051229;28;20233;-79
2021/03/14 10:14:42;;;;;;;0.93;0.90;;;;;;;5.26;73.12;97408.69;5055004;28;20789;-79
2021/03/14 10:17:10;;;;;;;2.00;1.20;;;;;;;5.25;73.23;97409.56;5049070;28;20238;-79
2021/03/14 10:19:37;;;;;;;2.33;1.57;;;;;;;5.26;72.17;97409.53;5050212;28;20209;-79
2021/03/14 10:22:03;;;;;;;2.30;1.23;;;;;;;5.20;72.14;97400.22;5051084;28;20229;-79
2021/03/14 10:24:31;;;;;;;3.37;1.17;;;;;;;5.20;73.12;97405.38;5050160;28;20209;-80
2021/03/14 10:26:59;;;;;;;2.83;1.17;;;;;;;5.51;70.42;97399.28;5054230;28;20257;-79
2021/03/14 10:29:28;;;;;;;0.57;0.53;;;;;;;5.70;70.46;97396.16;5051327;28;20271;-78
2021/03/14 10:31:55;;;;;;;3.17;0.73;;;;;;;5.93;69.75;97398.84;5050223;28;20237;-80
2021/03/14 10:34:22;;;;;;;4.27;1.63;;;;;;;6.15;70.26;97395.59;5052228;28;20218;-77
2021/03/14 10:36:48;;;;;;;3.90;1.43;;;;;;;6.36;68.29;97394.88;5049927;28;20246;-81
2021/03/14 10:39:15;;;;;;;4.93;1.87;;;;;;;6.56;69.50;97385.56;5048775;28;20214;-79
2021/03/14 10:41:43;;;;;;;1.70;1.00;;;;;;;6.56;67.47;97390.75;5047408;28;20252;-78
2021/03/14 10:44:11;;;;;;;1.83;0.60;;;;;;;6.30;66.77;97389.88;5051244;28;20630;-79
2021/03/14 10:46:38;;;;;;;2.00;1.67;;;;;;;6.16;68.69;97395.53;5056108;28;20249;-78
2021/03/14 10:49:05;;;;;;;3.73;1.67;;;;;;;6.18;68.57;97395.50;5050501;28;20333;-77
2021/03/14 10:51:32;;;;;;;2.83;1.07;;;;;;;6.00;68.62;97393.50;5049336;28;20282;-78
2021/03/14 10:54:06;;;;;;;3.70;2.10;;;;;;;5.90;68.44;97396.38;5049873;28;20247;-79
2021/03/14 10:56:33;;;;;;;2.70;1.60;;;;;;;5.80;68.14;97389.78;5050958;28;20860;-78
2021/03/14 10:59:00;;;;;;;2.17;1.50;;;;;;;5.68;68.24;97400.50;5049342;28;20712;-78
2021/03/14 11:01:31;;;;;;;3.50;1.45;;;;;;;5.65;68.46;97408.38;5047006;28;20226;-78
2021/03/14 11:04:05;;;;;;;1.88;1.13;;;;;;;5.70;69.39;97397.00;5048637;28;20234;-77
2021/03/14 11:06:32;;;;;;;2.40;1.10;;;;;;;5.73;68.12;97386.53;5047962;28;20316;-78
2021/03/14 11:09:02;;;;;;;6.60;2.00;;;;;;;5.79;67.45;97388.94;5048268;28;20226;-78
2021/03/14 11:11:42;;;;;;;3.90;1.63;;;;;;;5.72;68.29;97381.41;5049670;28;20229;-77
2021/03/14 11:14:31;;;;;;;1.20;0.90;;;;;;;5.89;67.87;97379.13;5047423;28;20260;-80
2021/03/14 11:17:15;;;;;;;4.97;1.57;;;;;;;6.19;65.97;97366.09;5047749;28;20329;-81
2021/03/14 11:19:43;;;;;;;3.30;1.50;;;;;;;6.14;64.70;97368.03;5048795;28;20888;-82
2021/03/14 11:22:09;;;;;;;2.50;1.20;;;;;;;6.16;65.32;97371.41;5047808;28;20238;-81
2021/03/14 11:24:37;;;;;;;2.10;1.10;;;;;;;6.14;66.78;97368.84;5049415;28;20210;-83
2021/03/14 11:27:04;;;;;;;2.57;1.03;;;;;;;6.26;65.01;97370.19;5044091;28;20332;-76
2021/03/14 11:29:30;;;;;;;1.60;0.90;;;;;;;6.20;64.30;97380.75;5045723;28;20698;-75
2021/03/14 11:31:56;;;;;;;6.20;1.53;;;;;;;6.10;64.17;97371.59;5041558;28;20234;-75
2021/03/14 11:34:23;;;;;;;1.63;1.10;;;;;;;5.92;62.98;97376.44;5045477;28;20960;-78
2021/03/14 11:36:51;;;;;;;3.43;1.07;;;;;;;5.90;64.62;97375.66;5042324;28;20742;-78
2021/03/14 11:39:17;;;;;;;2.37;1.50;;;;;;;5.94;64.61;97374.66;5045263;28;20210;-77
2021/03/14 11:41:45;;;;;;;1.77;0.97;;;;;;;5.98;65.70;97357.31;5044594;28;20248;-76
2021/03/14 11:44:11;;;;;;;2.30;1.20;;;;;;;6.13;64.60;97361.13;5043151;28;20208;-79
2021/03/14 11:46:37;;;;;;;2.42;1.02;;;;;;;6.23;63.02;97356.47;5046296;28;20245;-76
2021/03/14 11:49:04;;;;;;;0.80;0.73;;;;;;;6.21;62.76;97369.47;5044730;28;20318;-77
2021/03/14 11:51:31;;;;;;;2.20;0.90;;;;;;;6.28;61.59;97370.97;5044188;28;20234;-76